createdAt,value
2023-05-10T00:00:45.810Z,21.01
2023-05-10T00:03:12.408Z,20.95
2023-05-10T00:05:39.088Z,20.99
2023-05-10T00:08:05.808Z,20.98
2023-05-10T00:10:32.393Z,21.00
2023-05-10T00:12:59.229Z,21.01
2023-05-10T00:15:25.782Z,20.99
2023-05-10T00:17:52.410Z,21.03
2023-05-10T00:20:19.247Z,21.02
2023-05-10T00:22:45.981Z,20.99
2023-05-10T00:25:12.539Z,20.95
2023-05-10T00:27:39.228Z,20.98
2023-05-10T00:30:07.225Z,20.94
2023-05-10T00:32:33.876Z,20.89
2023-05-10T00:35:00.501Z,20.92
2023-05-10T00:37:27.126Z,20.90
2023-05-10T00:39:54.190Z,20.89
2023-05-10T00:42:20.811Z,20.88
2023-05-10T00:44:47.735Z,20.87
2023-05-10T00:47:14.512Z,20.87
2023-05-10T00:49:41.826Z,20.84
2023-05-10T00:52:09.346Z,20.85
2023-05-10T00:54:35.977Z,20.83
2023-05-10T00:57:02.598Z,20.81
2023-05-10T00:59:29.970Z,20.83
2023-05-10T01:01:56.609Z,20.82
2023-05-10T01:04:26.558Z,20.78
2023-05-10T01:06:54.629Z,20.75
2023-05-10T01:09:27.318Z,20.75
2023-05-10T01:11:54.726Z,20.74
2023-05-10T01:14:21.464Z,20.73
2023-05-10T01:16:50.326Z,20.72
2023-05-10T01:19:25.944Z,20.70
2023-05-10T01:22:30.817Z,20.64
2023-05-10T01:25:32.784Z,20.56
2023-05-10T01:28:17.858Z,20.59
2023-05-10T01:30:53.660Z,20.51
2023-05-10T01:33:30.709Z,20.50
2023-05-10T01:36:27.101Z,20.52
2023-05-10T01:38:53.587Z,20.49
2023-05-10T01:41:49.648Z,20.50
2023-05-10T01:44:22.042Z,20.47
2023-05-10T01:47:05.408Z,20.49
2023-05-10T01:49:35.665Z,20.43
2023-05-10T01:52:09.603Z,20.44
2023-05-10T01:54:39.469Z,20.44
2023-05-10T01:57:08.694Z,20.46
2023-05-10T01:59:37.997Z,20.42
2023-05-10T02:02:06.504Z,20.48
2023-05-10T02:04:36.197Z,20.51
2023-05-10T02:07:03.287Z,20.49
2023-05-10T02:09:33.051Z,20.48
2023-05-10T02:12:03.583Z,20.41
2023-05-10T02:14:33.128Z,20.44
2023-05-10T02:17:01.273Z,20.44
2023-05-10T02:19:29.898Z,20.48
2023-05-10T02:21:57.277Z,20.45
2023-05-10T02:24:26.109Z,20.41
2023-05-10T02:26:56.694Z,20.34
2023-05-10T02:29:25.842Z,20.32
2023-05-10T02:31:53.671Z,20.27
2023-05-10T02:34:22.568Z,20.28
2023-05-10T02:36:51.665Z,20.28
2023-05-10T02:39:20.306Z,20.29
2023-05-10T02:41:49.151Z,20.26
2023-05-10T02:44:18.807Z,20.23
2023-05-10T02:46:46.180Z,20.23
2023-05-10T02:49:12.974Z,20.23
2023-05-10T02:51:45.876Z,20.24
2023-05-10T02:54:17.618Z,20.32
2023-05-10T02:56:51.452Z,20.39
2023-05-10T02:59:18.172Z,20.33
2023-05-10T03:01:44.827Z,20.33
2023-05-10T03:04:11.745Z,20.47
2023-05-10T03:06:38.705Z,20.53
2023-05-10T03:09:05.555Z,20.55
2023-05-10T03:11:48.350Z,20.54
2023-05-10T03:14:39.786Z,20.56
2023-05-10T03:17:31.044Z,20.53
2023-05-10T03:20:04.250Z,20.45
2023-05-10T03:22:39.341Z,20.48
2023-05-10T03:25:07.906Z,20.54
2023-05-10T03:27:36.426Z,20.59
2023-05-10T03:30:04.087Z,20.66
2023-05-10T03:32:32.924Z,20.61
2023-05-10T03:34:59.561Z,20.58
2023-05-10T03:37:26.116Z,20.55
2023-05-10T03:39:52.712Z,20.57
2023-05-10T03:42:19.264Z,20.55
2023-05-10T03:44:45.785Z,20.58
2023-05-10T03:47:12.336Z,20.58
2023-05-10T03:49:38.900Z,20.56
2023-05-10T03:52:06.296Z,20.52
2023-05-10T03:54:33.268Z,20.51
2023-05-10T03:57:01.307Z,20.53
2023-05-10T03:59:27.992Z,20.46
2023-05-10T04:01:54.667Z,20.36
2023-05-10T04:04:22.437Z,20.35
2023-05-10T04:06:48.982Z,20.31
2023-05-10T04:09:16.124Z,20.28
2023-05-10T04:11:42.884Z,20.30
2023-05-10T04:14:09.699Z,20.25
2023-05-10T04:16:36.375Z,20.25
2023-05-10T04:19:05.796Z,20.22
2023-05-10T04:21:32.376Z,20.18
2023-05-10T04:23:58.917Z,20.18
2023-05-10T04:26:26.535Z,20.18
2023-05-10T04:28:53.145Z,20.17
2023-05-10T04:31:19.865Z,20.11
2023-05-10T04:33:46.545Z,20.11
2023-05-10T04:36:13.158Z,20.10
2023-05-10T04:38:39.699Z,20.08
2023-05-10T04:41:11.093Z,20.09
2023-05-10T04:43:38.304Z,20.06
2023-05-10T04:46:06.141Z,20.07
2023-05-10T04:48:32.807Z,20.05
2023-05-10T04:50:59.452Z,20.02
2023-05-10T04:53:26.088Z,20.05
2023-05-10T04:55:52.763Z,19.96
2023-05-10T04:58:19.384Z,19.95
2023-05-10T05:00:46.023Z,20.03
2023-05-10T05:03:12.710Z,20.13
2023-05-10T05:05:39.318Z,20.21
2023-05-10T05:08:05.942Z,20.23
2023-05-10T05:10:32.527Z,20.23
2023-05-10T05:12:59.194Z,20.26
2023-05-10T05:15:25.817Z,20.23
2023-05-10T05:17:52.825Z,20.27
2023-05-10T05:20:20.075Z,20.25
2023-05-10T05:22:46.779Z,20.28
2023-05-10T05:25:13.696Z,20.31
2023-05-10T05:27:40.355Z,20.31
2023-05-10T05:30:08.895Z,20.35
2023-05-10T05:32:35.678Z,20.45
2023-05-10T05:35:02.307Z,20.56
2023-05-10T05:37:28.914Z,20.69
2023-05-10T05:39:56.052Z,20.83
2023-05-10T05:42:22.704Z,20.99
2023-05-10T05:44:49.343Z,21.13
2023-05-10T05:47:15.999Z,21.25
2023-05-10T05:49:42.565Z,21.36
2023-05-10T05:52:09.137Z,21.41
2023-05-10T05:54:35.774Z,21.70
2023-05-10T05:57:02.329Z,21.95
2023-05-10T05:59:29.011Z,22.11
2023-05-10T06:01:55.780Z,22.15
2023-05-10T06:04:22.447Z,22.22
2023-05-10T06:06:49.274Z,22.43
2023-05-10T06:09:17.074Z,22.37
2023-05-10T06:11:43.876Z,22.47
2023-05-10T06:14:10.576Z,22.43
2023-05-10T06:16:37.227Z,22.40
2023-05-10T06:19:03.851Z,22.40
2023-05-10T06:21:31.056Z,22.42
2023-05-10T06:23:57.664Z,22.47
2023-05-10T06:26:24.516Z,22.47
2023-05-10T06:28:51.118Z,22.54
2023-05-10T06:31:17.949Z,22.55
2023-05-10T06:33:44.569Z,22.59
2023-05-10T06:36:11.157Z,22.66
2023-05-10T06:38:38.220Z,22.71
2023-05-10T06:41:04.842Z,22.78
2023-05-10T06:43:31.397Z,22.76
2023-05-10T06:45:58.413Z,22.83
2023-05-10T06:48:25.001Z,22.93
2023-05-10T06:50:51.539Z,23.07
2023-05-10T06:53:18.152Z,23.06
2023-05-10T06:55:44.838Z,23.22
2023-05-10T06:58:11.493Z,23.22
2023-05-10T07:00:41.622Z,23.22
2023-05-10T07:03:08.408Z,23.26
2023-05-10T07:05:35.442Z,23.28
2023-05-10T07:08:02.611Z,23.32
2023-05-10T07:10:29.355Z,23.11
2023-05-10T07:12:56.056Z,23.19
2023-05-10T07:15:22.933Z,23.32
2023-05-10T07:17:49.674Z,23.26
2023-05-10T07:20:16.610Z,23.35
2023-05-10T07:22:43.280Z,23.28
2023-05-10T07:25:10.111Z,23.24
2023-05-10T07:27:36.882Z,23.28
2023-05-10T07:30:03.616Z,23.29
2023-05-10T07:32:30.335Z,23.39
2023-05-10T07:34:56.984Z,23.15
2023-05-10T07:37:23.621Z,22.95
2023-05-10T07:39:50.206Z,22.82
2023-05-10T07:42:16.835Z,22.65
2023-05-10T07:44:44.272Z,22.72
2023-05-10T07:47:10.838Z,22.76
2023-05-10T07:49:37.432Z,22.74
2023-05-10T07:52:04.502Z,22.73
2023-05-10T07:54:31.136Z,22.68
2023-05-10T07:56:57.663Z,22.63
2023-05-10T07:59:24.301Z,22.66
2023-05-10T08:01:50.893Z,22.59
2023-05-10T08:04:17.558Z,22.57
2023-05-10T08:06:44.284Z,22.57
2023-05-10T08:09:11.951Z,22.55
2023-05-10T08:11:38.591Z,22.53
2023-05-10T08:14:05.386Z,22.51
2023-05-10T08:16:33.301Z,22.49
2023-05-10T08:19:00.041Z,22.48
2023-05-10T08:21:27.244Z,22.48
2023-05-10T08:23:53.886Z,22.49
2023-05-10T08:26:22.409Z,22.52
2023-05-10T08:28:49.026Z,22.46
2023-05-10T08:31:16.542Z,22.52
2023-05-10T08:33:44.757Z,22.39
2023-05-10T08:36:11.556Z,22.45
2023-05-10T08:38:38.882Z,22.44
2023-05-10T08:41:06.343Z,22.43
2023-05-10T08:43:33.223Z,22.42
2023-05-10T08:46:04.702Z,22.42
2023-05-10T08:48:32.182Z,22.41
2023-05-10T08:51:01.698Z,22.41
2023-05-10T08:53:31.457Z,22.40
2023-05-10T08:55:58.115Z,22.40
2023-05-10T08:58:24.795Z,22.35
2023-05-10T09:00:54.073Z,22.31
2023-05-10T09:03:20.870Z,22.33
2023-05-10T09:05:47.929Z,22.31
2023-05-10T09:08:17.190Z,22.28
2023-05-10T09:10:45.656Z,22.26
2023-05-10T09:13:12.893Z,22.25
2023-05-10T09:15:39.824Z,22.25
2023-05-10T09:18:06.519Z,22.27
2023-05-10T09:20:33.213Z,22.27
2023-05-10T09:22:59.743Z,22.20
2023-05-10T09:25:26.348Z,22.20
2023-05-10T09:27:53.565Z,22.19
2023-05-10T09:30:27.895Z,22.23
2023-05-10T09:32:55.749Z,22.26
2023-05-10T09:35:27.077Z,22.28
2023-05-10T09:37:57.467Z,22.38
2023-05-10T09:40:26.007Z,22.37
2023-05-10T09:42:56.431Z,22.37
2023-05-10T09:45:24.745Z,22.44
2023-05-10T09:47:51.529Z,22.45
2023-05-10T09:50:18.299Z,22.35
2023-05-10T09:52:54.424Z,22.39
2023-05-10T09:55:22.771Z,22.44
2023-05-10T09:57:50.438Z,22.47
2023-05-10T10:00:21.007Z,22.39
2023-05-10T10:02:55.264Z,22.45
2023-05-10T10:05:22.020Z,22.44
2023-05-10T10:07:50.257Z,22.42
2023-05-10T10:10:17.274Z,22.41
2023-05-10T10:12:44.041Z,22.42
2023-05-10T10:15:11.468Z,22.39
2023-05-10T10:17:39.518Z,22.22
2023-05-10T10:20:06.835Z,22.17
2023-05-10T10:22:33.505Z,22.17
2023-05-10T10:25:00.513Z,22.12
2023-05-10T10:27:53.559Z,22.10
2023-05-10T10:30:26.196Z,22.05
2023-05-10T10:33:29.125Z,22.03
2023-05-10T10:35:59.102Z,21.98
2023-05-10T10:38:26.124Z,22.00
2023-05-10T10:41:27.804Z,21.91
2023-05-10T10:44:34.909Z,21.90
2023-05-10T10:47:09.406Z,21.86
2023-05-10T10:49:45.008Z,21.83
2023-05-10T10:52:18.772Z,21.79
2023-05-10T10:54:57.971Z,21.76
2023-05-10T10:57:27.430Z,21.72
2023-05-10T11:00:19.186Z,21.70
2023-05-10T11:02:47.273Z,21.66
2023-05-10T11:05:37.348Z,21.65
2023-05-10T11:08:26.705Z,21.62
2023-05-10T11:10:53.336Z,21.60
2023-05-10T11:13:31.412Z,21.59
2023-05-10T11:15:58.787Z,21.59
2023-05-10T11:18:29.597Z,21.55
2023-05-10T11:20:57.687Z,21.59
2023-05-10T11:23:24.789Z,21.60
2023-05-10T11:25:51.328Z,21.72
2023-05-10T11:28:20.246Z,21.71
2023-05-10T11:30:47.143Z,21.68
2023-05-10T11:33:18.352Z,21.67
2023-05-10T11:35:45.082Z,21.63
2023-05-10T11:38:12.880Z,21.60
2023-05-10T11:40:40.783Z,21.58
2023-05-10T11:43:10.091Z,21.55
2023-05-10T11:45:36.771Z,21.57
2023-05-10T11:48:03.903Z,21.52
2023-05-10T11:50:30.691Z,21.51
2023-05-10T11:52:57.946Z,21.49
2023-05-10T11:55:27.338Z,21.45
2023-05-10T11:58:01.560Z,21.44
2023-05-10T12:00:28.557Z,21.45
2023-05-10T12:02:55.319Z,21.45
2023-05-10T12:05:22.595Z,21.44
2023-05-10T12:07:49.105Z,21.40
2023-05-10T12:10:16.470Z,21.44
2023-05-10T12:12:50.665Z,21.45
2023-05-10T12:15:25.726Z,21.43
2023-05-10T12:17:52.483Z,21.42
2023-05-10T12:20:28.688Z,21.40
2023-05-10T12:23:00.187Z,21.38
2023-05-10T12:25:31.728Z,21.38
2023-05-10T12:28:01.834Z,21.34
2023-05-10T12:30:33.714Z,21.32
2023-05-10T12:33:12.126Z,21.32
2023-05-10T12:35:49.236Z,21.31
2023-05-10T12:38:39.392Z,21.35
2023-05-10T12:41:11.022Z,21.30
2023-05-10T12:43:38.994Z,21.33
2023-05-10T12:46:09.925Z,21.31
2023-05-10T12:48:38.218Z,21.29
2023-05-10T12:51:05.826Z,21.26
2023-05-10T12:53:32.489Z,21.27
2023-05-10T12:55:59.104Z,21.27
2023-05-10T12:58:34.964Z,21.25
2023-05-10T13:01:02.846Z,21.26
2023-05-10T13:03:29.489Z,21.27
2023-05-10T13:05:56.058Z,21.27
2023-05-10T13:08:22.698Z,21.23
2023-05-10T13:10:49.791Z,21.22
2023-05-10T13:13:16.502Z,21.23
2023-05-10T13:15:43.129Z,21.22
2023-05-10T13:18:09.746Z,21.25
2023-05-10T13:20:36.645Z,21.26
2023-05-10T13:23:03.669Z,21.26
2023-05-10T13:25:30.930Z,21.26
2023-05-10T13:27:57.501Z,21.26
2023-05-10T13:30:24.951Z,21.25
2023-05-10T13:32:51.785Z,21.25
2023-05-10T13:35:18.427Z,21.29
2023-05-10T13:37:45.020Z,21.29
2023-05-10T13:40:11.825Z,21.28
2023-05-10T13:42:38.563Z,21.28
2023-05-10T13:45:05.727Z,21.24
2023-05-10T13:47:32.290Z,21.24
2023-05-10T13:49:59.444Z,21.22
2023-05-10T13:52:27.568Z,21.22
2023-05-10T13:54:56.182Z,21.21
2023-05-10T13:57:24.075Z,21.23
2023-05-10T13:59:51.283Z,21.22
2023-05-10T14:02:17.961Z,21.22
2023-05-10T14:04:44.567Z,21.20
2023-05-10T14:07:11.163Z,21.19
2023-05-10T14:09:37.743Z,21.19
2023-05-10T14:12:04.619Z,21.18
2023-05-10T14:14:31.300Z,21.16
2023-05-10T14:16:57.873Z,21.10
2023-05-10T14:19:24.497Z,21.10
2023-05-10T14:21:52.937Z,21.15
2023-05-10T14:24:19.530Z,21.10
2023-05-10T14:26:46.143Z,21.11
2023-05-10T14:29:12.850Z,21.10
2023-05-10T14:31:39.648Z,21.10
2023-05-10T14:34:06.707Z,21.09
2023-05-10T14:36:33.460Z,21.08
2023-05-10T14:39:00.127Z,21.08
2023-05-10T14:41:26.663Z,21.06
2023-05-10T14:43:53.591Z,21.04
2023-05-10T14:46:20.708Z,20.96
2023-05-10T14:48:47.386Z,20.95
2023-05-10T14:51:14.382Z,20.93
2023-05-10T14:53:41.078Z,20.91
2023-05-10T14:56:08.044Z,20.93
2023-05-10T14:58:34.710Z,20.87
2023-05-10T15:01:01.774Z,20.95
2023-05-10T15:03:29.155Z,21.06
2023-05-10T15:05:58.552Z,21.05
2023-05-10T15:08:25.671Z,21.05
2023-05-10T15:10:52.745Z,21.14
2023-05-10T15:13:19.305Z,21.17
2023-05-10T15:15:45.913Z,21.17
2023-05-10T15:18:12.709Z,21.16
2023-05-10T15:20:39.480Z,21.07
2023-05-10T15:23:06.029Z,21.08
2023-05-10T15:25:35.209Z,21.11
2023-05-10T15:28:03.631Z,21.17
2023-05-10T15:30:30.382Z,21.19
2023-05-10T15:32:57.496Z,21.21
2023-05-10T15:35:24.273Z,21.20
2023-05-10T15:49:27.953Z,21.13
2023-05-10T15:53:37.577Z,21.12
2023-05-10T15:56:04.667Z,21.06
2023-05-10T15:58:31.763Z,21.07
2023-05-10T16:00:58.622Z,21.16
2023-05-10T16:03:25.404Z,21.12
2023-05-10T16:05:52.188Z,21.13
2023-05-10T16:08:18.913Z,21.14
2023-05-10T16:10:46.011Z,21.12
2023-05-10T16:13:15.146Z,21.10
2023-05-10T16:15:42.017Z,21.08
2023-05-10T16:18:09.495Z,21.10
2023-05-10T16:20:36.825Z,21.04
2023-05-10T16:23:05.852Z,20.99
2023-05-10T16:25:33.199Z,21.03
2023-05-10T16:28:00.706Z,21.04
2023-05-10T16:30:29.628Z,21.03
2023-05-10T16:33:01.076Z,20.96
2023-05-10T16:35:29.935Z,20.87
2023-05-10T16:37:57.440Z,20.90
2023-05-10T16:40:24.309Z,20.86
2023-05-10T16:42:51.080Z,20.90
2023-05-10T16:45:18.176Z,20.86
2023-05-10T16:47:45.451Z,20.79
2023-05-10T16:50:12.542Z,20.81
2023-05-10T16:52:39.653Z,20.70
2023-05-10T16:55:06.856Z,20.70
2023-05-10T16:57:33.649Z,20.69
2023-05-10T17:00:00.688Z,20.62
2023-05-10T17:02:27.944Z,20.52
2023-05-10T17:04:56.168Z,20.60
2023-05-10T17:07:25.560Z,20.65
2023-05-10T17:09:53.219Z,20.63
2023-05-10T17:12:19.993Z,20.64
2023-05-10T17:14:47.439Z,20.67
2023-05-10T17:17:14.320Z,20.69
2023-05-10T17:19:44.941Z,20.73
2023-05-10T17:22:13.540Z,20.75
2023-05-10T17:24:40.445Z,20.72
2023-05-10T17:27:07.160Z,20.75
2023-05-10T17:29:33.981Z,20.74
2023-05-10T17:32:00.869Z,20.71
2023-05-10T17:34:27.806Z,20.73
2023-05-10T17:36:54.551Z,20.68
2023-05-10T17:39:21.429Z,20.62
2023-05-10T17:41:48.251Z,20.59
2023-05-10T17:44:15.141Z,20.56
2023-05-10T17:46:41.933Z,20.56
2023-05-10T17:49:08.920Z,20.54
2023-05-10T17:51:35.681Z,20.53
2023-05-10T17:54:02.532Z,20.50
2023-05-10T17:56:29.785Z,20.46
2023-05-10T17:58:56.627Z,20.45
2023-05-10T18:01:23.413Z,20.45
2023-05-10T18:03:51.945Z,20.38
2023-05-10T18:06:18.744Z,20.40
2023-05-10T18:08:45.630Z,20.35
2023-05-10T18:11:12.386Z,20.32
2023-05-10T18:13:39.226Z,20.35
2023-05-10T18:16:08.759Z,20.30
2023-05-10T18:18:35.814Z,20.28
2023-05-10T18:21:03.781Z,20.27
2023-05-10T18:23:30.745Z,20.24
2023-05-10T18:25:58.121Z,20.20
2023-05-10T18:28:24.918Z,20.18
2023-05-10T18:30:51.921Z,20.18
2023-05-10T18:33:19.052Z,20.18
2023-05-10T18:35:46.610Z,20.15
2023-05-10T18:38:14.049Z,20.15
2023-05-10T18:40:41.750Z,20.10
2023-05-10T18:43:09.019Z,20.10
2023-05-10T18:45:35.788Z,20.07
2023-05-10T18:48:03.070Z,20.05
2023-05-10T18:50:29.971Z,20.01
2023-05-10T18:52:56.960Z,20.06
2023-05-10T18:55:26.899Z,20.03
2023-05-10T18:57:53.885Z,20.04
2023-05-10T19:00:20.789Z,20.07
2023-05-10T19:02:47.905Z,20.03
2023-05-10T19:05:15.775Z,20.04
2023-05-10T19:07:43.990Z,20.02
2023-05-10T19:10:13.045Z,20.02
2023-05-10T19:12:41.747Z,20.03
2023-05-10T19:15:09.174Z,20.01
2023-05-10T19:17:37.055Z,19.97
2023-05-10T19:20:05.925Z,19.90
2023-05-10T19:22:45.380Z,20.02
2023-05-10T19:25:21.012Z,20.06
2023-05-10T19:27:47.949Z,20.09
2023-05-10T19:30:14.854Z,20.21
2023-05-10T19:32:44.289Z,20.28
2023-05-10T19:35:12.897Z,20.22
2023-05-10T19:37:39.725Z,20.20
2023-05-10T19:40:07.185Z,20.18
2023-05-10T19:42:33.957Z,20.20
2023-05-10T19:45:01.388Z,20.16
2023-05-10T19:47:28.320Z,20.10
2023-05-10T19:49:55.171Z,20.06
2023-05-10T19:52:22.863Z,20.10
2023-05-10T19:54:49.627Z,20.06
2023-05-10T19:57:16.627Z,20.08
2023-05-10T19:59:43.436Z,20.05
2023-05-10T20:02:28.683Z,20.16
2023-05-10T20:04:55.755Z,20.18
2023-05-10T20:07:22.517Z,20.12
2023-05-10T20:09:49.676Z,20.18
2023-05-10T20:12:16.518Z,20.12
2023-05-10T20:14:43.281Z,20.16
2023-05-10T20:17:10.097Z,20.15
2023-05-10T20:19:37.138Z,20.16
2023-05-10T20:22:05.477Z,20.15
2023-05-10T20:24:32.282Z,20.15
2023-05-10T20:26:59.032Z,20.16
2023-05-10T20:29:26.256Z,20.10
2023-05-10T20:31:53.148Z,20.16
2023-05-10T20:34:20.063Z,20.10
2023-05-10T20:36:46.878Z,20.11
2023-05-10T20:39:14.316Z,20.11
2023-05-10T20:41:41.116Z,20.13
2023-05-10T20:44:08.133Z,20.11
2023-05-10T20:46:35.179Z,20.08
2023-05-10T20:49:02.630Z,20.15
2023-05-10T20:51:30.513Z,20.09
2023-05-10T20:53:57.971Z,20.11
2023-05-10T20:56:24.765Z,20.09
2023-05-10T20:58:51.488Z,20.07
2023-05-10T21:01:18.314Z,20.12
2023-05-10T21:03:45.237Z,20.04
2023-05-10T21:06:11.983Z,20.08
2023-05-10T21:08:38.727Z,20.02
2023-05-10T21:11:05.832Z,20.02
2023-05-10T21:13:33.288Z,20.08
2023-05-10T21:16:00.534Z,20.12
2023-05-10T21:18:27.486Z,20.04
2023-05-10T21:20:54.427Z,19.98
2023-05-10T21:23:21.243Z,19.97
2023-05-10T21:25:48.000Z,19.93
2023-05-10T21:28:14.865Z,19.91
2023-05-10T21:30:41.620Z,19.88
2023-05-10T21:33:08.503Z,19.86
2023-05-10T21:35:35.342Z,19.88
2023-05-10T21:38:02.282Z,19.83
2023-05-10T21:40:29.088Z,19.87
2023-05-10T21:42:55.934Z,19.80
2023-05-10T21:45:22.844Z,19.85
2023-05-10T21:47:49.927Z,19.98
2023-05-10T21:50:17.024Z,20.07
2023-05-10T21:52:44.130Z,19.97
2023-05-10T21:55:10.882Z,19.91
2023-05-10T21:57:37.668Z,19.88
2023-05-10T22:00:05.038Z,19.88
2023-05-10T22:02:32.003Z,19.91
2023-05-10T22:04:58.835Z,19.81
2023-05-10T22:07:25.672Z,19.78
2023-05-10T22:09:52.463Z,19.76
2023-05-10T22:12:19.208Z,19.70
2023-05-10T22:14:47.458Z,19.73
2023-05-10T22:17:15.525Z,19.67
2023-05-10T22:19:42.511Z,19.68
2023-05-10T22:22:09.499Z,19.63
2023-05-10T22:24:37.089Z,19.63
2023-05-10T22:27:04.906Z,19.64
2023-05-10T22:29:31.829Z,19.63
2023-05-10T22:31:58.998Z,19.61
2023-05-10T22:34:25.814Z,19.59
2023-05-10T22:36:52.589Z,19.59
2023-05-10T22:39:19.367Z,19.57
2023-05-10T22:41:46.884Z,19.56
2023-05-10T22:44:13.611Z,19.52
2023-05-10T22:46:40.515Z,19.54
2023-05-10T22:49:07.538Z,19.60
2023-05-10T22:51:34.897Z,19.48
2023-05-10T22:54:01.646Z,19.53
2023-05-10T22:56:28.550Z,19.53
2023-05-10T22:58:57.166Z,19.51
2023-05-10T23:01:24.056Z,19.52
2023-05-10T23:03:51.184Z,19.50
2023-05-10T23:06:18.596Z,19.54
2023-05-10T23:08:45.430Z,19.47
2023-05-10T23:11:12.778Z,19.42
2023-05-10T23:13:39.549Z,19.41
2023-05-10T23:16:07.147Z,19.41
2023-05-10T23:18:34.029Z,19.42
2023-05-10T23:21:01.132Z,19.38
2023-05-10T23:23:27.988Z,19.42
2023-05-10T23:25:54.972Z,19.37
2023-05-10T23:28:21.877Z,19.40
2023-05-10T23:30:55.633Z,19.39
2023-05-10T23:33:23.297Z,19.41
2023-05-10T23:35:50.563Z,19.40
2023-05-10T23:38:17.527Z,19.45
2023-05-10T23:40:48.552Z,19.44
2023-05-10T23:43:16.402Z,19.41
2023-05-10T23:45:43.821Z,19.42
2023-05-10T23:48:11.137Z,19.39
2023-05-10T23:50:37.842Z,19.30
2023-05-10T23:53:04.703Z,19.30
2023-05-10T23:55:31.539Z,19.28
2023-05-10T23:57:58.401Z,19.22
